Terminal Aerodrome Forecast
Issued by NWS Quad Cities IA IL

Home | Current Version | Previous Version | Text Only | Print | Product List | Glossary On
Versions: 1 2 3 4 5 6 7 8 9 10 11 12 13 14 15 16 17
000
FTUS43 KDVN 210300 AAA
TAFMLI
TAF AMD
KMLI 210330Z 2104/2124 25005KT 6SM BR SKC
     FM210400 34015G25KT P6SM BKN060
     FM210700 33011G18KT P6SM SKC
     FM211600 34016G24KT P6SM SCT030=

USA.gov is the U.S. government's official web portal to all federal, state and local government web resources and services.